sensor_id;sensor_type;location;lat;lon;timestamp;temperature;humidity
77985;DHT22;67177;47.240;-1.546;2024-02-23T00:01:54;7.90;77.10
77985;DHT22;67177;47.240;-1.546;2024-02-23T00:04:20;8.00;76.80
77985;DHT22;67177;47.240;-1.546;2024-02-23T00:06:45;8.00;77.10
77985;DHT22;67177;47.240;-1.546;2024-02-23T00:09:11;8.10;77.20
77985;DHT22;67177;47.240;-1.546;2024-02-23T00:11:43;8.10;77.30
77985;DHT22;67177;47.240;-1.546;2024-02-23T00:14:12;8.10;77.50
77985;DHT22;67177;47.240;-1.546;2024-02-23T00:16:39;8.10;77.30
77985;DHT22;67177;47.240;-1.546;2024-02-23T00:19:07;8.10;77.50
77985;DHT22;67177;47.240;-1.546;2024-02-23T00:21:32;8.20;77.60
77985;DHT22;67177;47.240;-1.546;2024-02-23T00:23:58;8.10;77.50
77985;DHT22;67177;47.240;-1.546;2024-02-23T00:26:23;8.10;76.90
77985;DHT22;67177;47.240;-1.546;2024-02-23T00:28:49;8.10;76.40
77985;DHT22;67177;47.240;-1.546;2024-02-23T00:31:15;8.00;76.70
77985;DHT22;67177;47.240;-1.546;2024-02-23T00:33:40;8.00;76.70
77985;DHT22;67177;47.240;-1.546;2024-02-23T00:36:08;8.00;76.60
77985;DHT22;67177;47.240;-1.546;2024-02-23T00:38:33;8.00;76.60
77985;DHT22;67177;47.240;-1.546;2024-02-23T00:40:59;8.00;76.60
77985;DHT22;67177;47.240;-1.546;2024-02-23T00:43:25;8.00;76.60
77985;DHT22;67177;47.240;-1.546;2024-02-23T00:45:50;8.00;76.70
77985;DHT22;67177;47.240;-1.546;2024-02-23T00:48:16;8.00;76.70
77985;DHT22;67177;47.240;-1.546;2024-02-23T00:50:41;8.00;76.50
77985;DHT22;67177;47.240;-1.546;2024-02-23T00:53:07;8.10;76.80
77985;DHT22;67177;47.240;-1.546;2024-02-23T00:55:33;8.10;76.60
77985;DHT22;67177;47.240;-1.546;2024-02-23T00:57:58;8.20;76.70
77985;DHT22;67177;47.240;-1.546;2024-02-23T01:00:24;8.20;76.40
77985;DHT22;67177;47.240;-1.546;2024-02-23T01:02:50;8.30;76.40
77985;DHT22;67177;47.240;-1.546;2024-02-23T01:05:16;8.30;76.40
77985;DHT22;67177;47.240;-1.546;2024-02-23T01:07:42;8.30;76.70
77985;DHT22;67177;47.240;-1.546;2024-02-23T01:10:08;8.40;76.70
77985;DHT22;67177;47.240;-1.546;2024-02-23T01:12:35;8.40;76.80
77985;DHT22;67177;47.240;-1.546;2024-02-23T01:15:01;8.30;76.90
77985;DHT22;67177;47.240;-1.546;2024-02-23T01:17:26;8.30;77.20
77985;DHT22;67177;47.240;-1.546;2024-02-23T01:19:52;8.20;77.50
77985;DHT22;67177;47.240;-1.546;2024-02-23T01:22:18;8.20;77.60
77985;DHT22;67177;47.240;-1.546;2024-02-23T01:24:43;8.10;77.80
77985;DHT22;67177;47.240;-1.546;2024-02-23T01:27:09;8.10;77.90
77985;DHT22;67177;47.240;-1.546;2024-02-23T01:29:35;8.10;77.80
77985;DHT22;67177;47.240;-1.546;2024-02-23T01:32:00;8.10;77.80
77985;DHT22;67177;47.240;-1.546;2024-02-23T01:34:26;8.10;77.70
77985;DHT22;67177;47.240;-1.546;2024-02-23T01:36:52;8.10;77.80
77985;DHT22;67177;47.240;-1.546;2024-02-23T01:39:18;8.10;77.80
77985;DHT22;67177;47.240;-1.546;2024-02-23T01:41:44;8.10;77.70
77985;DHT22;67177;47.240;-1.546;2024-02-23T01:44:10;8.10;77.70
77985;DHT22;67177;47.240;-1.546;2024-02-23T01:46:36;8.10;77.70
77985;DHT22;67177;47.240;-1.546;2024-02-23T01:49:03;8.10;77.60
77985;DHT22;67177;47.240;-1.546;2024-02-23T01:51:29;8.10;77.70
77985;DHT22;67177;47.240;-1.546;2024-02-23T01:53:55;8.10;77.70
77985;DHT22;67177;47.240;-1.546;2024-02-23T01:56:21;8.00;77.80
77985;DHT22;67177;47.240;-1.546;2024-02-23T01:58:47;8.00;77.40
77985;DHT22;67177;47.240;-1.546;2024-02-23T02:01:13;8.00;77.30
77985;DHT22;67177;47.240;-1.546;2024-02-23T02:03:39;7.90;77.50
77985;DHT22;67177;47.240;-1.546;2024-02-23T02:06:06;7.90;76.90
77985;DHT22;67177;47.240;-1.546;2024-02-23T02:08:33;7.90;76.90
77985;DHT22;67177;47.240;-1.546;2024-02-23T02:11:00;7.90;77.10
77985;DHT22;67177;47.240;-1.546;2024-02-23T02:13:25;7.90;77.30
77985;DHT22;67177;47.240;-1.546;2024-02-23T02:15:51;7.90;77.00
77985;DHT22;67177;47.240;-1.546;2024-02-23T02:18:16;7.90;76.80
77985;DHT22;67177;47.240;-1.546;2024-02-23T02:20:52;7.90;76.50
77985;DHT22;67177;47.240;-1.546;2024-02-23T02:23:19;7.90;76.70
77985;DHT22;67177;47.240;-1.546;2024-02-23T02:25:44;7.90;76.00
77985;DHT22;67177;47.240;-1.546;2024-02-23T02:28:10;7.90;76.20
77985;DHT22;67177;47.240;-1.546;2024-02-23T02:30:37;7.90;76.30
77985;DHT22;67177;47.240;-1.546;2024-02-23T02:33:03;7.80;76.30
77985;DHT22;67177;47.240;-1.546;2024-02-23T02:35:29;7.90;76.30
77985;DHT22;67177;47.240;-1.546;2024-02-23T02:37:54;7.90;76.30
77985;DHT22;67177;47.240;-1.546;2024-02-23T02:40:20;7.90;76.10
77985;DHT22;67177;47.240;-1.546;2024-02-23T02:42:46;7.90;76.00
77985;DHT22;67177;47.240;-1.546;2024-02-23T02:45:12;7.90;75.70
77985;DHT22;67177;47.240;-1.546;2024-02-23T02:47:37;7.90;75.70
77985;DHT22;67177;47.240;-1.546;2024-02-23T02:50:03;7.90;75.70
77985;DHT22;67177;47.240;-1.546;2024-02-23T02:52:32;7.90;75.80
77985;DHT22;67177;47.240;-1.546;2024-02-23T02:54:58;7.90;75.60
77985;DHT22;67177;47.240;-1.546;2024-02-23T02:57:23;7.80;75.60
77985;DHT22;67177;47.240;-1.546;2024-02-23T02:59:49;7.90;75.60
77985;DHT22;67177;47.240;-1.546;2024-02-23T03:02:15;7.90;75.10
77985;DHT22;67177;47.240;-1.546;2024-02-23T03:04:50;7.80;75.00
77985;DHT22;67177;47.240;-1.546;2024-02-23T03:07:17;7.80;75.20
77985;DHT22;67177;47.240;-1.546;2024-02-23T03:09:42;7.90;75.40
77985;DHT22;67177;47.240;-1.546;2024-02-23T03:12:08;7.90;75.40
77985;DHT22;67177;47.240;-1.546;2024-02-23T03:14:34;8.00;74.90
77985;DHT22;67177;47.240;-1.546;2024-02-23T03:17:00;8.10;75.00
77985;DHT22;67177;47.240;-1.546;2024-02-23T03:19:25;8.20;75.00
77985;DHT22;67177;47.240;-1.546;2024-02-23T03:21:52;8.20;74.90
77985;DHT22;67177;47.240;-1.546;2024-02-23T03:24:18;8.30;74.50
77985;DHT22;67177;47.240;-1.546;2024-02-23T03:26:43;8.30;74.40
77985;DHT22;67177;47.240;-1.546;2024-02-23T03:29:09;8.30;74.70
77985;DHT22;67177;47.240;-1.546;2024-02-23T03:31:35;8.30;74.50
77985;DHT22;67177;47.240;-1.546;2024-02-23T03:34:02;8.20;74.80
77985;DHT22;67177;47.240;-1.546;2024-02-23T03:36:28;8.20;74.70
77985;DHT22;67177;47.240;-1.546;2024-02-23T03:38:54;8.20;74.70
77985;DHT22;67177;47.240;-1.546;2024-02-23T03:41:19;8.10;75.00
77985;DHT22;67177;47.240;-1.546;2024-02-23T03:43:45;8.10;75.00
77985;DHT22;67177;47.240;-1.546;2024-02-23T03:46:11;8.00;75.30
77985;DHT22;67177;47.240;-1.546;2024-02-23T03:48:37;8.00;75.50
77985;DHT22;67177;47.240;-1.546;2024-02-23T03:51:04;8.00;75.70
77985;DHT22;67177;47.240;-1.546;2024-02-23T03:53:30;8.00;75.70
77985;DHT22;67177;47.240;-1.546;2024-02-23T03:55:57;7.90;75.80
77985;DHT22;67177;47.240;-1.546;2024-02-23T03:58:22;7.90;75.90
77985;DHT22;67177;47.240;-1.546;2024-02-23T04:00:48;7.90;76.20
77985;DHT22;67177;47.240;-1.546;2024-02-23T04:03:14;7.90;76.10
77985;DHT22;67177;47.240;-1.546;2024-02-23T04:05:39;8.00;76.30
77985;DHT22;67177;47.240;-1.546;2024-02-23T04:08:05;8.00;76.30
77985;DHT22;67177;47.240;-1.546;2024-02-23T04:10:31;8.00;76.40
77985;DHT22;67177;47.240;-1.546;2024-02-23T04:12:58;8.10;76.30
77985;DHT22;67177;47.240;-1.546;2024-02-23T04:15:23;8.00;76.40
77985;DHT22;67177;47.240;-1.546;2024-02-23T04:17:49;8.00;76.50
77985;DHT22;67177;47.240;-1.546;2024-02-23T04:20:15;8.00;76.60
77985;DHT22;67177;47.240;-1.546;2024-02-23T04:22:41;8.00;76.70
77985;DHT22;67177;47.240;-1.546;2024-02-23T04:25:06;7.90;76.70
77985;DHT22;67177;47.240;-1.546;2024-02-23T04:27:32;8.00;76.80
77985;DHT22;67177;47.240;-1.546;2024-02-23T04:29:58;7.90;76.90
77985;DHT22;67177;47.240;-1.546;2024-02-23T04:32:23;7.90;76.90
77985;DHT22;67177;47.240;-1.546;2024-02-23T04:34:49;7.90;76.90
77985;DHT22;67177;47.240;-1.546;2024-02-23T04:37:15;7.90;77.00
77985;DHT22;67177;47.240;-1.546;2024-02-23T04:39:43;7.90;77.10
77985;DHT22;67177;47.240;-1.546;2024-02-23T04:42:08;7.90;77.10
77985;DHT22;67177;47.240;-1.546;2024-02-23T04:44:35;7.90;77.30
77985;DHT22;67177;47.240;-1.546;2024-02-23T04:47:01;7.90;77.30
77985;DHT22;67177;47.240;-1.546;2024-02-23T04:49:27;7.90;77.40
77985;DHT22;67177;47.240;-1.546;2024-02-23T04:51:53;7.90;77.40
77985;DHT22;67177;47.240;-1.546;2024-02-23T04:54:18;7.90;77.50
77985;DHT22;67177;47.240;-1.546;2024-02-23T04:56:44;7.80;77.70
77985;DHT22;67177;47.240;-1.546;2024-02-23T04:59:10;7.80;77.80
77985;DHT22;67177;47.240;-1.546;2024-02-23T05:01:36;7.80;77.80
77985;DHT22;67177;47.240;-1.546;2024-02-23T05:04:03;7.80;77.80
77985;DHT22;67177;47.240;-1.546;2024-02-23T05:06:29;7.80;77.80
77985;DHT22;67177;47.240;-1.546;2024-02-23T05:08:55;7.80;78.00
77985;DHT22;67177;47.240;-1.546;2024-02-23T05:11:21;7.80;78.00
77985;DHT22;67177;47.240;-1.546;2024-02-23T05:13:47;7.80;78.10
77985;DHT22;67177;47.240;-1.546;2024-02-23T05:16:14;7.90;78.20
77985;DHT22;67177;47.240;-1.546;2024-02-23T05:18:40;8.00;78.00
77985;DHT22;67177;47.240;-1.546;2024-02-23T05:21:06;8.10;77.80
77985;DHT22;67177;47.240;-1.546;2024-02-23T05:23:32;8.10;77.80
77985;DHT22;67177;47.240;-1.546;2024-02-23T05:25:58;8.10;77.60
77985;DHT22;67177;47.240;-1.546;2024-02-23T05:28:24;8.10;77.60
77985;DHT22;67177;47.240;-1.546;2024-02-23T05:30:49;8.00;77.60
77985;DHT22;67177;47.240;-1.546;2024-02-23T05:33:15;7.90;77.50
77985;DHT22;67177;47.240;-1.546;2024-02-23T05:35:40;7.90;77.70
77985;DHT22;67177;47.240;-1.546;2024-02-23T05:38:06;7.90;77.70
77985;DHT22;67177;47.240;-1.546;2024-02-23T05:40:32;7.80;77.60
77985;DHT22;67177;47.240;-1.546;2024-02-23T05:43:01;7.70;77.80
77985;DHT22;67177;47.240;-1.546;2024-02-23T05:45:27;7.70;77.80
77985;DHT22;67177;47.240;-1.546;2024-02-23T05:47:52;7.70;78.00
77985;DHT22;67177;47.240;-1.546;2024-02-23T05:50:18;7.70;78.10
77985;DHT22;67177;47.240;-1.546;2024-02-23T05:52:44;7.70;78.20
77985;DHT22;67177;47.240;-1.546;2024-02-23T05:55:09;7.80;78.30
77985;DHT22;67177;47.240;-1.546;2024-02-23T05:57:35;7.80;78.30
77985;DHT22;67177;47.240;-1.546;2024-02-23T06:00:00;7.80;78.30
77985;DHT22;67177;47.240;-1.546;2024-02-23T06:02:26;7.90;78.40
77985;DHT22;67177;47.240;-1.546;2024-02-23T06:04:52;7.90;78.40
77985;DHT22;67177;47.240;-1.546;2024-02-23T06:07:17;7.90;78.30
77985;DHT22;67177;47.240;-1.546;2024-02-23T06:09:43;7.80;78.40
77985;DHT22;67177;47.240;-1.546;2024-02-23T06:12:09;7.80;78.50
77985;DHT22;67177;47.240;-1.546;2024-02-23T06:14:35;7.90;78.50
77985;DHT22;67177;47.240;-1.546;2024-02-23T06:17:01;7.80;78.60
77985;DHT22;67177;47.240;-1.546;2024-02-23T06:19:28;7.90;78.50
77985;DHT22;67177;47.240;-1.546;2024-02-23T06:21:54;7.80;78.40
77985;DHT22;67177;47.240;-1.546;2024-02-23T06:24:19;7.80;78.50
77985;DHT22;67177;47.240;-1.546;2024-02-23T06:26:45;7.70;78.70
77985;DHT22;67177;47.240;-1.546;2024-02-23T06:29:12;7.70;78.70
77985;DHT22;67177;47.240;-1.546;2024-02-23T06:31:40;7.70;78.70
77985;DHT22;67177;47.240;-1.546;2024-02-23T06:34:07;7.70;78.60
77985;DHT22;67177;47.240;-1.546;2024-02-23T06:36:32;7.70;78.80
77985;DHT22;67177;47.240;-1.546;2024-02-23T06:38:58;7.60;78.80
77985;DHT22;67177;47.240;-1.546;2024-02-23T06:41:24;7.60;78.90
77985;DHT22;67177;47.240;-1.546;2024-02-23T06:43:49;7.50;79.10
77985;DHT22;67177;47.240;-1.546;2024-02-23T06:46:19;7.50;79.20
77985;DHT22;67177;47.240;-1.546;2024-02-23T06:48:46;7.50;79.40
77985;DHT22;67177;47.240;-1.546;2024-02-23T06:51:11;7.50;79.40
77985;DHT22;67177;47.240;-1.546;2024-02-23T06:53:37;7.50;79.50
77985;DHT22;67177;47.240;-1.546;2024-02-23T06:56:03;7.40;79.50
77985;DHT22;67177;47.240;-1.546;2024-02-23T06:58:29;7.50;79.50
77985;DHT22;67177;47.240;-1.546;2024-02-23T07:00:55;7.40;79.50
77985;DHT22;67177;47.240;-1.546;2024-02-23T07:03:20;7.40;79.70
77985;DHT22;67177;47.240;-1.546;2024-02-23T07:05:46;7.40;79.60
77985;DHT22;67177;47.240;-1.546;2024-02-23T07:08:13;7.50;79.70
77985;DHT22;67177;47.240;-1.546;2024-02-23T07:10:39;7.40;79.80
77985;DHT22;67177;47.240;-1.546;2024-02-23T07:13:05;7.40;80.00
77985;DHT22;67177;47.240;-1.546;2024-02-23T07:15:32;7.40;80.10
77985;DHT22;67177;47.240;-1.546;2024-02-23T07:17:58;7.40;80.00
77985;DHT22;67177;47.240;-1.546;2024-02-23T07:20:24;7.40;79.90
77985;DHT22;67177;47.240;-1.546;2024-02-23T07:22:50;7.40;79.60
77985;DHT22;67177;47.240;-1.546;2024-02-23T07:25:16;7.40;79.50
77985;DHT22;67177;47.240;-1.546;2024-02-23T07:27:42;7.50;79.50
77985;DHT22;67177;47.240;-1.546;2024-02-23T07:30:08;7.50;79.50
77985;DHT22;67177;47.240;-1.546;2024-02-23T07:32:34;7.60;79.30
77985;DHT22;67177;47.240;-1.546;2024-02-23T07:35:00;7.70;79.10
77985;DHT22;67177;47.240;-1.546;2024-02-23T07:37:26;7.70;79.00
77985;DHT22;67177;47.240;-1.546;2024-02-23T07:39:52;7.70;78.90
77985;DHT22;67177;47.240;-1.546;2024-02-23T07:42:18;7.70;78.70
77985;DHT22;67177;47.240;-1.546;2024-02-23T07:44:46;7.70;78.80
77985;DHT22;67177;47.240;-1.546;2024-02-23T07:47:12;7.70;78.80
77985;DHT22;67177;47.240;-1.546;2024-02-23T07:49:38;7.70;78.80
77985;DHT22;67177;47.240;-1.546;2024-02-23T07:52:06;7.80;78.60
77985;DHT22;67177;47.240;-1.546;2024-02-23T07:54:33;7.90;78.40
77985;DHT22;67177;47.240;-1.546;2024-02-23T07:56:59;7.90;78.20
77985;DHT22;67177;47.240;-1.546;2024-02-23T07:59:24;7.90;78.00
77985;DHT22;67177;47.240;-1.546;2024-02-23T08:01:50;7.80;78.10
77985;DHT22;67177;47.240;-1.546;2024-02-23T08:04:16;7.90;78.20
77985;DHT22;67177;47.240;-1.546;2024-02-23T08:06:42;7.90;77.80
77985;DHT22;67177;47.240;-1.546;2024-02-23T08:09:10;7.80;78.00
77985;DHT22;67177;47.240;-1.546;2024-02-23T08:11:36;7.80;78.00
77985;DHT22;67177;47.240;-1.546;2024-02-23T08:14:02;7.90;78.10
77985;DHT22;67177;47.240;-1.546;2024-02-23T08:16:28;7.90;78.00
77985;DHT22;67177;47.240;-1.546;2024-02-23T08:18:54;8.00;77.90
77985;DHT22;67177;47.240;-1.546;2024-02-23T08:21:20;8.00;77.90
77985;DHT22;67177;47.240;-1.546;2024-02-23T08:23:46;8.10;77.60
77985;DHT22;67177;47.240;-1.546;2024-02-23T08:26:11;8.20;77.60
77985;DHT22;67177;47.240;-1.546;2024-02-23T08:28:37;8.30;77.60
77985;DHT22;67177;47.240;-1.546;2024-02-23T08:31:03;8.40;77.50
77985;DHT22;67177;47.240;-1.546;2024-02-23T08:33:28;8.40;77.40
77985;DHT22;67177;47.240;-1.546;2024-02-23T08:35:54;8.50;77.40
77985;DHT22;67177;47.240;-1.546;2024-02-23T08:38:20;8.50;77.20
77985;DHT22;67177;47.240;-1.546;2024-02-23T08:40:46;8.60;77.30
77985;DHT22;67177;47.240;-1.546;2024-02-23T08:43:13;8.60;77.20
77985;DHT22;67177;47.240;-1.546;2024-02-23T08:45:39;8.60;77.20
77985;DHT22;67177;47.240;-1.546;2024-02-23T08:48:04;8.80;77.10
77985;DHT22;67177;47.240;-1.546;2024-02-23T08:50:30;8.90;77.10
77985;DHT22;67177;47.240;-1.546;2024-02-23T08:52:56;9.00;77.00
77985;DHT22;67177;47.240;-1.546;2024-02-23T08:55:22;9.00;76.70
77985;DHT22;67177;47.240;-1.546;2024-02-23T08:57:48;9.00;76.50
77985;DHT22;67177;47.240;-1.546;2024-02-23T09:00:14;9.00;76.60
77985;DHT22;67177;47.240;-1.546;2024-02-23T09:02:40;9.00;76.70
77985;DHT22;67177;47.240;-1.546;2024-02-23T09:05:08;8.90;76.70
77985;DHT22;67177;47.240;-1.546;2024-02-23T09:07:34;8.80;76.90
77985;DHT22;67177;47.240;-1.546;2024-02-23T09:09:59;8.60;77.00
77985;DHT22;67177;47.240;-1.546;2024-02-23T09:12:25;8.60;77.20
77985;DHT22;67177;47.240;-1.546;2024-02-23T09:14:51;8.60;77.30
77985;DHT22;67177;47.240;-1.546;2024-02-23T09:17:17;8.60;77.50
77985;DHT22;67177;47.240;-1.546;2024-02-23T09:19:44;8.70;77.50
77985;DHT22;67177;47.240;-1.546;2024-02-23T09:22:10;8.70;77.50
77985;DHT22;67177;47.240;-1.546;2024-02-23T09:24:39;8.80;77.40
77985;DHT22;67177;47.240;-1.546;2024-02-23T09:27:05;8.80;77.40
77985;DHT22;67177;47.240;-1.546;2024-02-23T09:29:32;8.90;77.10
77985;DHT22;67177;47.240;-1.546;2024-02-23T09:31:58;9.00;77.30
77985;DHT22;67177;47.240;-1.546;2024-02-23T09:34:24;9.10;77.20
77985;DHT22;67177;47.240;-1.546;2024-02-23T09:36:50;9.20;77.10
77985;DHT22;67177;47.240;-1.546;2024-02-23T09:39:16;9.30;77.00
77985;DHT22;67177;47.240;-1.546;2024-02-23T09:41:42;9.40;76.90
77985;DHT22;67177;47.240;-1.546;2024-02-23T09:44:08;9.50;76.80
77985;DHT22;67177;47.240;-1.546;2024-02-23T09:46:36;9.60;76.70
77985;DHT22;67177;47.240;-1.546;2024-02-23T09:49:03;9.70;76.60
77985;DHT22;67177;47.240;-1.546;2024-02-23T09:51:32;9.70;76.50
77985;DHT22;67177;47.240;-1.546;2024-02-23T09:53:59;9.80;76.50
77985;DHT22;67177;47.240;-1.546;2024-02-23T09:56:28;9.80;76.60
77985;DHT22;67177;47.240;-1.546;2024-02-23T09:58:59;9.80;76.60
77985;DHT22;67177;47.240;-1.546;2024-02-23T10:01:29;9.80;76.60
77985;DHT22;67177;47.240;-1.546;2024-02-23T10:04:02;9.70;76.50
77985;DHT22;67177;47.240;-1.546;2024-02-23T10:06:29;9.80;76.50
77985;DHT22;67177;47.240;-1.546;2024-02-23T10:08:55;9.90;76.50
77985;DHT22;67177;47.240;-1.546;2024-02-23T10:11:22;10.00;76.20
77985;DHT22;67177;47.240;-1.546;2024-02-23T10:13:48;10.10;76.20
77985;DHT22;67177;47.240;-1.546;2024-02-23T10:16:21;10.30;76.00
77985;DHT22;67177;47.240;-1.546;2024-02-23T10:18:48;10.40;75.90
77985;DHT22;67177;47.240;-1.546;2024-02-23T10:21:15;10.60;75.80
77985;DHT22;67177;47.240;-1.546;2024-02-23T10:23:41;10.90;75.40
77985;DHT22;67177;47.240;-1.546;2024-02-23T10:26:07;11.00;75.10
77985;DHT22;67177;47.240;-1.546;2024-02-23T10:28:34;11.00;75.10
77985;DHT22;67177;47.240;-1.546;2024-02-23T10:31:00;10.90;74.90
77985;DHT22;67177;47.240;-1.546;2024-02-23T10:33:27;10.70;75.00
77985;DHT22;67177;47.240;-1.546;2024-02-23T10:35:56;10.60;75.10
77985;DHT22;67177;47.240;-1.546;2024-02-23T10:38:23;10.50;75.20
77985;DHT22;67177;47.240;-1.546;2024-02-23T10:40:50;10.40;75.40
77985;DHT22;67177;47.240;-1.546;2024-02-23T10:43:17;10.30;75.60
77985;DHT22;67177;47.240;-1.546;2024-02-23T10:45:45;10.20;75.80
77985;DHT22;67177;47.240;-1.546;2024-02-23T10:48:11;10.10;75.60
77985;DHT22;67177;47.240;-1.546;2024-02-23T10:50:38;9.90;75.80
77985;DHT22;67177;47.240;-1.546;2024-02-23T10:53:04;9.70;76.10
77985;DHT22;67177;47.240;-1.546;2024-02-23T10:55:37;9.60;76.20
77985;DHT22;67177;47.240;-1.546;2024-02-23T10:58:02;9.50;76.30
77985;DHT22;67177;47.240;-1.546;2024-02-23T11:00:29;9.40;76.50
77985;DHT22;67177;47.240;-1.546;2024-02-23T11:02:55;9.30;76.60
77985;DHT22;67177;47.240;-1.546;2024-02-23T11:05:22;9.20;76.80
77985;DHT22;67177;47.240;-1.546;2024-02-23T11:07:49;9.10;77.00
77985;DHT22;67177;47.240;-1.546;2024-02-23T11:10:16;9.20;77.10
77985;DHT22;67177;47.240;-1.546;2024-02-23T11:12:42;9.30;76.90
77985;DHT22;67177;47.240;-1.546;2024-02-23T11:15:08;9.40;76.80
77985;DHT22;67177;47.240;-1.546;2024-02-23T11:17:36;9.60;76.50
77985;DHT22;67177;47.240;-1.546;2024-02-23T11:20:04;9.70;76.50
77985;DHT22;67177;47.240;-1.546;2024-02-23T11:22:31;9.90;76.40
77985;DHT22;67177;47.240;-1.546;2024-02-23T11:25:04;9.90;76.20
77985;DHT22;67177;47.240;-1.546;2024-02-23T11:27:40;10.00;76.20
77985;DHT22;67177;47.240;-1.546;2024-02-23T11:30:08;10.30;76.10
77985;DHT22;67177;47.240;-1.546;2024-02-23T11:32:44;10.40;76.00
77985;DHT22;67177;47.240;-1.546;2024-02-23T11:35:13;10.50;75.80
77985;DHT22;67177;47.240;-1.546;2024-02-23T11:37:52;10.60;75.70
77985;DHT22;67177;47.240;-1.546;2024-02-23T11:40:29;10.60;75.50
77985;DHT22;67177;47.240;-1.546;2024-02-23T11:42:55;10.70;75.30
77985;DHT22;67177;47.240;-1.546;2024-02-23T11:45:21;10.70;75.30
77985;DHT22;67177;47.240;-1.546;2024-02-23T11:47:47;10.70;75.30
77985;DHT22;67177;47.240;-1.546;2024-02-23T11:50:13;10.70;75.20
77985;DHT22;67177;47.240;-1.546;2024-02-23T11:52:41;10.70;74.80
77985;DHT22;67177;47.240;-1.546;2024-02-23T11:55:07;10.80;74.80
77985;DHT22;67177;47.240;-1.546;2024-02-23T11:57:36;10.80;74.80
77985;DHT22;67177;47.240;-1.546;2024-02-23T12:00:07;10.80;74.80
77985;DHT22;67177;47.240;-1.546;2024-02-23T12:02:35;10.80;74.80
77985;DHT22;67177;47.240;-1.546;2024-02-23T12:05:01;11.20;74.60
77985;DHT22;67177;47.240;-1.546;2024-02-23T12:07:31;11.60;73.30
77985;DHT22;67177;47.240;-1.546;2024-02-23T12:09:57;11.70;73.10
77985;DHT22;67177;47.240;-1.546;2024-02-23T12:12:26;11.80;73.20
77985;DHT22;67177;47.240;-1.546;2024-02-23T12:14:52;11.80;73.00
77985;DHT22;67177;47.240;-1.546;2024-02-23T12:17:18;11.90;72.70
77985;DHT22;67177;47.240;-1.546;2024-02-23T12:19:44;12.00;72.60
77985;DHT22;67177;47.240;-1.546;2024-02-23T12:22:13;12.00;72.40
77985;DHT22;67177;47.240;-1.546;2024-02-23T12:24:40;11.90;72.00
77985;DHT22;67177;47.240;-1.546;2024-02-23T12:27:07;11.70;71.60
77985;DHT22;67177;47.240;-1.546;2024-02-23T12:29:32;11.40;71.70
77985;DHT22;67177;47.240;-1.546;2024-02-23T12:32:05;11.30;72.20
77985;DHT22;67177;47.240;-1.546;2024-02-23T12:34:31;11.20;72.40
77985;DHT22;67177;47.240;-1.546;2024-02-23T12:36:56;11.20;72.10
77985;DHT22;67177;47.240;-1.546;2024-02-23T12:39:22;11.20;72.30
77985;DHT22;67177;47.240;-1.546;2024-02-23T12:41:48;11.20;72.50
77985;DHT22;67177;47.240;-1.546;2024-02-23T12:44:13;11.30;72.40
77985;DHT22;67177;47.240;-1.546;2024-02-23T12:46:40;11.20;71.90
77985;DHT22;67177;47.240;-1.546;2024-02-23T12:49:05;11.10;71.80
77985;DHT22;67177;47.240;-1.546;2024-02-23T12:51:31;11.10;72.20
77985;DHT22;67177;47.240;-1.546;2024-02-23T12:53:57;11.00;72.20
77985;DHT22;67177;47.240;-1.546;2024-02-23T12:56:23;10.80;72.30
77985;DHT22;67177;47.240;-1.546;2024-02-23T12:58:50;10.80;72.40
77985;DHT22;67177;47.240;-1.546;2024-02-23T13:01:16;10.70;72.50
77985;DHT22;67177;47.240;-1.546;2024-02-23T13:03:41;10.60;72.40
77985;DHT22;67177;47.240;-1.546;2024-02-23T13:06:07;10.50;72.50
77985;DHT22;67177;47.240;-1.546;2024-02-23T13:08:33;10.40;72.70
77985;DHT22;67177;47.240;-1.546;2024-02-23T13:11:00;10.50;72.80
77985;DHT22;67177;47.240;-1.546;2024-02-23T13:13:25;10.50;72.80
77985;DHT22;67177;47.240;-1.546;2024-02-23T13:15:52;10.50;72.70
77985;DHT22;67177;47.240;-1.546;2024-02-23T13:18:18;10.50;72.80
77985;DHT22;67177;47.240;-1.546;2024-02-23T13:20:45;10.60;72.80
77985;DHT22;67177;47.240;-1.546;2024-02-23T13:23:11;10.60;72.50
77985;DHT22;67177;47.240;-1.546;2024-02-23T13:25:40;10.50;72.20
77985;DHT22;67177;47.240;-1.546;2024-02-23T13:28:07;10.30;72.10
77985;DHT22;67177;47.240;-1.546;2024-02-23T13:30:33;10.20;72.20
77985;DHT22;67177;47.240;-1.546;2024-02-23T13:33:00;10.00;72.40
77985;DHT22;67177;47.240;-1.546;2024-02-23T13:35:26;9.90;72.50
77985;DHT22;67177;47.240;-1.546;2024-02-23T13:37:52;9.90;72.50
77985;DHT22;67177;47.240;-1.546;2024-02-23T13:40:18;9.90;72.60
77985;DHT22;67177;47.240;-1.546;2024-02-23T13:42:44;9.70;72.90
77985;DHT22;67177;47.240;-1.546;2024-02-23T13:45:15;9.80;72.30
77985;DHT22;67177;47.240;-1.546;2024-02-23T13:47:42;9.80;72.70
77985;DHT22;67177;47.240;-1.546;2024-02-23T13:50:10;9.80;73.00
77985;DHT22;67177;47.240;-1.546;2024-02-23T13:52:36;9.80;72.80
77985;DHT22;67177;47.240;-1.546;2024-02-23T13:55:02;9.80;73.10
77985;DHT22;67177;47.240;-1.546;2024-02-23T13:57:28;9.80;73.30
77985;DHT22;67177;47.240;-1.546;2024-02-23T13:59:55;9.70;73.30
77985;DHT22;67177;47.240;-1.546;2024-02-23T14:02:26;9.60;73.40
77985;DHT22;67177;47.240;-1.546;2024-02-23T14:04:59;9.60;73.50
77985;DHT22;67177;47.240;-1.546;2024-02-23T14:07:26;9.60;73.70
77985;DHT22;67177;47.240;-1.546;2024-02-23T14:09:51;9.60;73.70
77985;DHT22;67177;47.240;-1.546;2024-02-23T14:12:17;9.70;73.70
77985;DHT22;67177;47.240;-1.546;2024-02-23T14:14:44;9.90;73.70
77985;DHT22;67177;47.240;-1.546;2024-02-23T14:17:10;10.10;73.60
77985;DHT22;67177;47.240;-1.546;2024-02-23T14:19:35;10.20;73.60
77985;DHT22;67177;47.240;-1.546;2024-02-23T14:22:01;10.20;73.50
77985;DHT22;67177;47.240;-1.546;2024-02-23T14:24:27;10.30;73.50
77985;DHT22;67177;47.240;-1.546;2024-02-23T14:26:52;10.30;73.50
77985;DHT22;67177;47.240;-1.546;2024-02-23T14:29:18;10.50;73.40
77985;DHT22;67177;47.240;-1.546;2024-02-23T14:31:44;10.60;73.10
77985;DHT22;67177;47.240;-1.546;2024-02-23T14:34:09;10.70;73.00
77985;DHT22;67177;47.240;-1.546;2024-02-23T14:36:35;10.80;72.90
77985;DHT22;67177;47.240;-1.546;2024-02-23T14:39:00;10.70;73.00
77985;DHT22;67177;47.240;-1.546;2024-02-23T14:41:26;10.60;73.00
77985;DHT22;67177;47.240;-1.546;2024-02-23T14:43:52;10.40;73.00
77985;DHT22;67177;47.240;-1.546;2024-02-23T14:46:18;10.30;72.20
77985;DHT22;67177;47.240;-1.546;2024-02-23T14:48:44;10.10;72.40
77985;DHT22;67177;47.240;-1.546;2024-02-23T14:51:11;9.90;72.50
77985;DHT22;67177;47.240;-1.546;2024-02-23T14:53:37;9.80;72.70
77985;DHT22;67177;47.240;-1.546;2024-02-23T14:56:03;9.70;72.40
77985;DHT22;67177;47.240;-1.546;2024-02-23T14:58:28;9.70;72.40
77985;DHT22;67177;47.240;-1.546;2024-02-23T15:00:54;9.70;72.50
77985;DHT22;67177;47.240;-1.546;2024-02-23T15:03:20;9.70;72.30
77985;DHT22;67177;47.240;-1.546;2024-02-23T15:05:46;9.70;72.20
77985;DHT22;67177;47.240;-1.546;2024-02-23T15:08:11;9.70;71.80
77985;DHT22;67177;47.240;-1.546;2024-02-23T15:10:37;9.60;71.30
77985;DHT22;67177;47.240;-1.546;2024-02-23T15:13:03;9.60;71.40
77985;DHT22;67177;47.240;-1.546;2024-02-23T15:15:28;9.70;71.20
77985;DHT22;67177;47.240;-1.546;2024-02-23T15:17:54;9.70;69.80
77985;DHT22;67177;47.240;-1.546;2024-02-23T15:20:20;9.80;69.20
77985;DHT22;67177;47.240;-1.546;2024-02-23T15:22:46;9.80;68.80